sensor_id;sensor_type;location;lat;lon;timestamp;P1;durP1;ratioP1;P2;durP2;ratioP2
40691;SDS011;26377;53.344;14.886;2022-07-09T00:00:26;5.35;;;2.20;;
40691;SDS011;26377;53.344;14.886;2022-07-09T00:02:57;12.88;;;3.00;;
40691;SDS011;26377;53.344;14.886;2022-07-09T00:05:26;7.97;;;2.70;;
40691;SDS011;26377;53.344;14.886;2022-07-09T00:07:54;9.60;;;2.30;;
40691;SDS011;26377;53.344;14.886;2022-07-09T00:10:25;8.13;;;2.50;;
40691;SDS011;26377;53.344;14.886;2022-07-09T00:12:54;15.15;;;3.00;;
40691;SDS011;26377;53.344;14.886;2022-07-09T00:15:23;6.72;;;2.30;;
40691;SDS011;26377;53.344;14.886;2022-07-09T00:17:51;7.53;;;2.70;;
40691;SDS011;26377;53.344;14.886;2022-07-09T00:20:19;9.20;;;3.00;;
40691;SDS011;26377;53.344;14.886;2022-07-09T00:22:49;6.20;;;2.65;;
40691;SDS011;26377;53.344;14.886;2022-07-09T00:25:18;6.55;;;2.75;;
40691;SDS011;26377;53.344;14.886;2022-07-09T00:27:47;7.22;;;2.85;;
40691;SDS011;26377;53.344;14.886;2022-07-09T00:30:16;5.37;;;3.10;;
40691;SDS011;26377;53.344;14.886;2022-07-09T00:32:44;8.48;;;2.85;;
40691;SDS011;26377;53.344;14.886;2022-07-09T00:35:11;10.05;;;2.92;;
40691;SDS011;26377;53.344;14.886;2022-07-09T00:37:38;6.75;;;3.05;;
40691;SDS011;26377;53.344;14.886;2022-07-09T00:40:07;9.15;;;2.90;;
40691;SDS011;26377;53.344;14.886;2022-07-09T00:42:36;7.60;;;3.22;;
40691;SDS011;26377;53.344;14.886;2022-07-09T00:45:06;10.45;;;3.10;;
40691;SDS011;26377;53.344;14.886;2022-07-09T00:47:33;7.60;;;3.17;;
40691;SDS011;26377;53.344;14.886;2022-07-09T00:50:02;9.53;;;3.20;;
40691;SDS011;26377;53.344;14.886;2022-07-09T00:52:31;8.70;;;3.00;;
40691;SDS011;26377;53.344;14.886;2022-07-09T00:55:05;9.28;;;3.10;;
40691;SDS011;26377;53.344;14.886;2022-07-09T00:57:35;6.90;;;3.10;;
40691;SDS011;26377;53.344;14.886;2022-07-09T01:00:09;6.42;;;2.62;;
40691;SDS011;26377;53.344;14.886;2022-07-09T01:02:37;6.55;;;2.98;;
40691;SDS011;26377;53.344;14.886;2022-07-09T01:05:10;6.95;;;3.10;;
40691;SDS011;26377;53.344;14.886;2022-07-09T01:07:40;9.13;;;3.45;;
40691;SDS011;26377;53.344;14.886;2022-07-09T01:10:09;9.05;;;3.60;;
40691;SDS011;26377;53.344;14.886;2022-07-09T01:12:36;11.48;;;3.37;;
40691;SDS011;26377;53.344;14.886;2022-07-09T01:15:05;8.73;;;3.15;;
40691;SDS011;26377;53.344;14.886;2022-07-09T01:17:45;9.70;;;3.00;;
40691;SDS011;26377;53.344;14.886;2022-07-09T01:20:24;14.18;;;3.17;;
40691;SDS011;26377;53.344;14.886;2022-07-09T01:22:49;7.53;;;2.80;;
40691;SDS011;26377;53.344;14.886;2022-07-09T01:25:17;10.15;;;3.85;;
40691;SDS011;26377;53.344;14.886;2022-07-09T01:27:47;8.60;;;3.12;;
40691;SDS011;26377;53.344;14.886;2022-07-09T01:30:24;9.98;;;3.20;;
40691;SDS011;26377;53.344;14.886;2022-07-09T01:32:57;9.63;;;3.27;;
40691;SDS011;26377;53.344;14.886;2022-07-09T01:37:57;10.38;;;3.20;;
40691;SDS011;26377;53.344;14.886;2022-07-09T01:40:26;6.17;;;2.83;;
40691;SDS011;26377;53.344;14.886;2022-07-09T01:42:57;10.78;;;3.10;;
40691;SDS011;26377;53.344;14.886;2022-07-09T01:45:26;5.45;;;3.02;;
40691;SDS011;26377;53.344;14.886;2022-07-09T01:47:53;7.80;;;2.98;;
40691;SDS011;26377;53.344;14.886;2022-07-09T01:50:22;10.40;;;2.90;;
40691;SDS011;26377;53.344;14.886;2022-07-09T01:52:52;13.32;;;2.95;;
40691;SDS011;26377;53.344;14.886;2022-07-09T01:55:21;6.90;;;3.47;;
40691;SDS011;26377;53.344;14.886;2022-07-09T01:57:51;8.33;;;2.83;;
40691;SDS011;26377;53.344;14.886;2022-07-09T02:00:18;8.58;;;3.27;;
40691;SDS011;26377;53.344;14.886;2022-07-09T02:02:47;12.07;;;3.60;;
40691;SDS011;26377;53.344;14.886;2022-07-09T02:05:16;12.58;;;4.22;;
40691;SDS011;26377;53.344;14.886;2022-07-09T02:07:47;7.10;;;3.67;;
40691;SDS011;26377;53.344;14.886;2022-07-09T02:10:18;9.05;;;3.47;;
40691;SDS011;26377;53.344;14.886;2022-07-09T02:12:45;9.65;;;3.55;;
40691;SDS011;26377;53.344;14.886;2022-07-09T02:15:15;6.25;;;3.25;;
40691;SDS011;26377;53.344;14.886;2022-07-09T02:17:46;6.87;;;3.20;;
40691;SDS011;26377;53.344;14.886;2022-07-09T02:22:45;8.88;;;2.75;;
40691;SDS011;26377;53.344;14.886;2022-07-09T02:25:14;8.30;;;2.85;;
40691;SDS011;26377;53.344;14.886;2022-07-09T02:27:43;5.33;;;3.25;;
40691;SDS011;26377;53.344;14.886;2022-07-09T02:30:10;10.82;;;3.37;;
40691;SDS011;26377;53.344;14.886;2022-07-09T02:32:41;7.75;;;3.72;;
40691;SDS011;26377;53.344;14.886;2022-07-09T02:35:08;12.37;;;3.65;;
40691;SDS011;26377;53.344;14.886;2022-07-09T02:37:39;14.50;;;3.45;;
40691;SDS011;26377;53.344;14.886;2022-07-09T02:40:10;11.45;;;3.30;;
40691;SDS011;26377;53.344;14.886;2022-07-09T02:42:42;7.87;;;3.30;;
40691;SDS011;26377;53.344;14.886;2022-07-09T02:45:11;9.05;;;4.22;;
40691;SDS011;26377;53.344;14.886;2022-07-09T02:47:43;9.28;;;3.27;;
40691;SDS011;26377;53.344;14.886;2022-07-09T02:50:14;8.83;;;3.62;;
40691;SDS011;26377;53.344;14.886;2022-07-09T02:52:45;10.30;;;3.27;;
40691;SDS011;26377;53.344;14.886;2022-07-09T02:55:14;8.38;;;3.37;;
40691;SDS011;26377;53.344;14.886;2022-07-09T02:57:46;8.95;;;3.00;;
40691;SDS011;26377;53.344;14.886;2022-07-09T03:00:15;9.03;;;3.10;;
40691;SDS011;26377;53.344;14.886;2022-07-09T03:02:46;9.23;;;3.35;;
40691;SDS011;26377;53.344;14.886;2022-07-09T03:05:18;11.25;;;3.10;;
40691;SDS011;26377;53.344;14.886;2022-07-09T03:07:47;7.83;;;3.00;;
40691;SDS011;26377;53.344;14.886;2022-07-09T03:10:18;6.67;;;2.95;;
40691;SDS011;26377;53.344;14.886;2022-07-09T03:12:49;7.87;;;3.08;;
40691;SDS011;26377;53.344;14.886;2022-07-09T03:15:18;9.98;;;2.98;;
40691;SDS011;26377;53.344;14.886;2022-07-09T03:17:47;7.85;;;3.33;;
40691;SDS011;26377;53.344;14.886;2022-07-09T03:20:16;8.05;;;3.25;;
40691;SDS011;26377;53.344;14.886;2022-07-09T03:22:46;10.25;;;3.47;;
40691;SDS011;26377;53.344;14.886;2022-07-09T03:25:13;10.08;;;3.27;;
40691;SDS011;26377;53.344;14.886;2022-07-09T03:27:40;7.65;;;2.87;;
40691;SDS011;26377;53.344;14.886;2022-07-09T03:30:10;8.48;;;3.05;;
40691;SDS011;26377;53.344;14.886;2022-07-09T03:32:41;7.08;;;2.87;;
40691;SDS011;26377;53.344;14.886;2022-07-09T03:35:10;4.97;;;2.98;;
40691;SDS011;26377;53.344;14.886;2022-07-09T03:37:39;10.20;;;3.08;;
40691;SDS011;26377;53.344;14.886;2022-07-09T03:40:09;8.25;;;3.33;;
40691;SDS011;26377;53.344;14.886;2022-07-09T03:42:38;9.63;;;2.98;;
40691;SDS011;26377;53.344;14.886;2022-07-09T03:45:07;11.12;;;3.15;;
40691;SDS011;26377;53.344;14.886;2022-07-09T03:47:42;10.13;;;3.65;;
40691;SDS011;26377;53.344;14.886;2022-07-09T03:50:11;11.85;;;3.05;;
40691;SDS011;26377;53.344;14.886;2022-07-09T03:52:38;11.12;;;2.70;;
40691;SDS011;26377;53.344;14.886;2022-07-09T03:55:09;7.97;;;2.58;;
40691;SDS011;26377;53.344;14.886;2022-07-09T03:57:40;12.75;;;2.80;;
40691;SDS011;26377;53.344;14.886;2022-07-09T04:00:09;11.35;;;3.00;;
40691;SDS011;26377;53.344;14.886;2022-07-09T04:02:42;14.00;;;3.58;;
40691;SDS011;26377;53.344;14.886;2022-07-09T04:05:11;14.05;;;3.47;;
40691;SDS011;26377;53.344;14.886;2022-07-09T04:07:41;11.65;;;3.62;;
40691;SDS011;26377;53.344;14.886;2022-07-09T04:10:09;8.18;;;3.02;;
40691;SDS011;26377;53.344;14.886;2022-07-09T04:12:39;11.40;;;3.58;;
40691;SDS011;26377;53.344;14.886;2022-07-09T04:15:08;11.73;;;3.40;;
40691;SDS011;26377;53.344;14.886;2022-07-09T04:17:39;11.68;;;3.10;;
40691;SDS011;26377;53.344;14.886;2022-07-09T04:20:07;10.15;;;2.80;;
40691;SDS011;26377;53.344;14.886;2022-07-09T04:22:37;12.68;;;3.90;;
40691;SDS011;26377;53.344;14.886;2022-07-09T04:25:06;7.22;;;2.95;;
40691;SDS011;26377;53.344;14.886;2022-07-09T04:30:09;13.15;;;3.30;;
40691;SDS011;26377;53.344;14.886;2022-07-09T04:32:37;7.10;;;2.80;;
40691;SDS011;26377;53.344;14.886;2022-07-09T04:35:07;11.50;;;2.85;;
40691;SDS011;26377;53.344;14.886;2022-07-09T04:37:36;7.97;;;3.17;;
40691;SDS011;26377;53.344;14.886;2022-07-09T04:40:07;15.00;;;3.98;;
40691;SDS011;26377;53.344;14.886;2022-07-09T04:42:36;10.95;;;2.85;;
40691;SDS011;26377;53.344;14.886;2022-07-09T04:45:07;11.75;;;3.60;;
40691;SDS011;26377;53.344;14.886;2022-07-09T04:47:35;9.85;;;3.05;;
40691;SDS011;26377;53.344;14.886;2022-07-09T04:50:04;7.60;;;2.98;;
40691;SDS011;26377;53.344;14.886;2022-07-09T04:52:31;10.88;;;3.35;;
40691;SDS011;26377;53.344;14.886;2022-07-09T04:55:02;9.93;;;3.17;;
40691;SDS011;26377;53.344;14.886;2022-07-09T04:57:31;11.95;;;3.08;;
40691;SDS011;26377;53.344;14.886;2022-07-09T05:00:03;8.15;;;3.10;;
40691;SDS011;26377;53.344;14.886;2022-07-09T05:02:38;9.10;;;2.92;;
40691;SDS011;26377;53.344;14.886;2022-07-09T05:05:05;8.50;;;2.72;;
40691;SDS011;26377;53.344;14.886;2022-07-09T05:07:36;10.75;;;3.37;;
40691;SDS011;26377;53.344;14.886;2022-07-09T05:10:05;9.90;;;3.42;;
40691;SDS011;26377;53.344;14.886;2022-07-09T05:12:35;13.40;;;3.58;;
40691;SDS011;26377;53.344;14.886;2022-07-09T05:15:02;13.30;;;3.25;;
40691;SDS011;26377;53.344;14.886;2022-07-09T05:17:35;11.68;;;3.42;;
40691;SDS011;26377;53.344;14.886;2022-07-09T05:20:09;12.07;;;3.08;;
40691;SDS011;26377;53.344;14.886;2022-07-09T05:22:39;10.60;;;3.17;;
40691;SDS011;26377;53.344;14.886;2022-07-09T05:25:08;9.45;;;3.45;;
40691;SDS011;26377;53.344;14.886;2022-07-09T05:27:42;11.88;;;2.85;;
40691;SDS011;26377;53.344;14.886;2022-07-09T05:30:14;13.35;;;3.25;;
40691;SDS011;26377;53.344;14.886;2022-07-09T05:32:43;9.83;;;2.50;;
40691;SDS011;26377;53.344;14.886;2022-07-09T05:35:15;10.25;;;2.72;;
40691;SDS011;26377;53.344;14.886;2022-07-09T05:37:43;8.80;;;3.27;;
40691;SDS011;26377;53.344;14.886;2022-07-09T05:40:13;8.23;;;2.90;;
40691;SDS011;26377;53.344;14.886;2022-07-09T05:42:44;6.85;;;2.33;;
40691;SDS011;26377;53.344;14.886;2022-07-09T05:45:13;13.00;;;2.87;;
40691;SDS011;26377;53.344;14.886;2022-07-09T05:47:42;13.75;;;3.60;;
40691;SDS011;26377;53.344;14.886;2022-07-09T05:50:09;8.45;;;2.75;;
40691;SDS011;26377;53.344;14.886;2022-07-09T05:52:36;8.60;;;2.77;;
40691;SDS011;26377;53.344;14.886;2022-07-09T05:55:05;8.30;;;2.55;;
40691;SDS011;26377;53.344;14.886;2022-07-09T05:57:39;8.83;;;2.37;;
40691;SDS011;26377;53.344;14.886;2022-07-09T06:00:08;11.90;;;3.55;;
40691;SDS011;26377;53.344;14.886;2022-07-09T06:02:38;8.58;;;2.40;;
40691;SDS011;26377;53.344;14.886;2022-07-09T06:05:06;6.03;;;2.42;;
40691;SDS011;26377;53.344;14.886;2022-07-09T06:07:34;8.28;;;2.67;;
40691;SDS011;26377;53.344;14.886;2022-07-09T06:10:03;12.28;;;2.30;;
40691;SDS011;26377;53.344;14.886;2022-07-09T06:12:33;9.90;;;2.55;;
40691;SDS011;26377;53.344;14.886;2022-07-09T06:15:04;10.80;;;2.75;;
40691;SDS011;26377;53.344;14.886;2022-07-09T06:17:34;12.07;;;2.55;;
40691;SDS011;26377;53.344;14.886;2022-07-09T06:20:01;6.80;;;2.05;;
40691;SDS011;26377;53.344;14.886;2022-07-09T06:22:30;10.48;;;2.42;;
40691;SDS011;26377;53.344;14.886;2022-07-09T06:24:59;8.38;;;2.67;;
40691;SDS011;26377;53.344;14.886;2022-07-09T06:30:02;12.88;;;3.62;;
40691;SDS011;26377;53.344;14.886;2022-07-09T06:32:32;9.85;;;3.45;;
40691;SDS011;26377;53.344;14.886;2022-07-09T06:35:00;9.90;;;2.33;;
40691;SDS011;26377;53.344;14.886;2022-07-09T06:37:30;10.75;;;3.27;;
40691;SDS011;26377;53.344;14.886;2022-07-09T06:39:59;7.17;;;2.30;;
40691;SDS011;26377;53.344;14.886;2022-07-09T06:42:26;6.37;;;1.95;;
40691;SDS011;26377;53.344;14.886;2022-07-09T06:44:58;7.95;;;1.80;;
40691;SDS011;26377;53.344;14.886;2022-07-09T06:47:27;7.45;;;2.47;;
40691;SDS011;26377;53.344;14.886;2022-07-09T06:49:58;10.58;;;2.40;;
40691;SDS011;26377;53.344;14.886;2022-07-09T06:52:26;4.75;;;1.90;;
40691;SDS011;26377;53.344;14.886;2022-07-09T06:54:55;8.35;;;2.42;;
40691;SDS011;26377;53.344;14.886;2022-07-09T06:57:22;8.58;;;2.55;;
40691;SDS011;26377;53.344;14.886;2022-07-09T06:59:49;7.95;;;2.15;;
40691;SDS011;26377;53.344;14.886;2022-07-09T07:02:17;7.08;;;2.22;;
40691;SDS011;26377;53.344;14.886;2022-07-09T07:04:45;8.35;;;2.27;;
40691;SDS011;26377;53.344;14.886;2022-07-09T07:07:12;8.55;;;3.42;;
40691;SDS011;26377;53.344;14.886;2022-07-09T07:09:40;9.18;;;2.55;;
40691;SDS011;26377;53.344;14.886;2022-07-09T07:12:07;7.40;;;2.20;;
40691;SDS011;26377;53.344;14.886;2022-07-09T07:14:40;6.62;;;2.40;;
40691;SDS011;26377;53.344;14.886;2022-07-09T07:17:09;7.05;;;2.60;;
40691;SDS011;26377;53.344;14.886;2022-07-09T07:19:38;10.10;;;2.90;;
40691;SDS011;26377;53.344;14.886;2022-07-09T07:22:05;5.90;;;1.77;;
40691;SDS011;26377;53.344;14.886;2022-07-09T07:24:32;5.90;;;2.05;;
40691;SDS011;26377;53.344;14.886;2022-07-09T07:27:00;4.20;;;1.82;;
40691;SDS011;26377;53.344;14.886;2022-07-09T07:29:31;8.20;;;2.00;;
40691;SDS011;26377;53.344;14.886;2022-07-09T07:32:02;4.50;;;1.80;;
40691;SDS011;26377;53.344;14.886;2022-07-09T07:34:31;5.78;;;1.85;;
40691;SDS011;26377;53.344;14.886;2022-07-09T07:37:02;5.67;;;2.00;;
40691;SDS011;26377;53.344;14.886;2022-07-09T07:39:30;6.67;;;2.00;;
40691;SDS011;26377;53.344;14.886;2022-07-09T07:41:59;4.58;;;2.05;;
40691;SDS011;26377;53.344;14.886;2022-07-09T07:44:29;3.45;;;1.42;;
40691;SDS011;26377;53.344;14.886;2022-07-09T07:46:58;5.62;;;1.92;;
40691;SDS011;26377;53.344;14.886;2022-07-09T07:49:27;4.05;;;1.50;;
40691;SDS011;26377;53.344;14.886;2022-07-09T07:51:55;5.85;;;1.60;;
40691;SDS011;26377;53.344;14.886;2022-07-09T07:54:22;5.33;;;2.15;;
40691;SDS011;26377;53.344;14.886;2022-07-09T07:56:49;2.98;;;1.40;;
40691;SDS011;26377;53.344;14.886;2022-07-09T07:59:18;3.77;;;1.62;;
40691;SDS011;26377;53.344;14.886;2022-07-09T08:01:48;4.40;;;1.50;;
40691;SDS011;26377;53.344;14.886;2022-07-09T08:04:15;2.90;;;1.50;;
40691;SDS011;26377;53.344;14.886;2022-07-09T08:06:46;5.92;;;1.98;;
40691;SDS011;26377;53.344;14.886;2022-07-09T08:09:14;4.42;;;2.08;;
40691;SDS011;26377;53.344;14.886;2022-07-09T08:11:43;4.15;;;1.65;;
40691;SDS011;26377;53.344;14.886;2022-07-09T08:14:13;4.35;;;1.60;;
40691;SDS011;26377;53.344;14.886;2022-07-09T08:16:42;4.60;;;1.55;;
40691;SDS011;26377;53.344;14.886;2022-07-09T08:19:11;3.65;;;1.50;;
40691;SDS011;26377;53.344;14.886;2022-07-09T08:21:41;4.37;;;1.50;;
40691;SDS011;26377;53.344;14.886;2022-07-09T08:24:09;5.47;;;1.67;;
40691;SDS011;26377;53.344;14.886;2022-07-09T08:26:36;4.00;;;1.40;;
40691;SDS011;26377;53.344;14.886;2022-07-09T08:29:04;4.80;;;1.87;;
40691;SDS011;26377;53.344;14.886;2022-07-09T08:31:33;4.17;;;1.40;;
40691;SDS011;26377;53.344;14.886;2022-07-09T08:34:00;3.10;;;1.50;;
40691;SDS011;26377;53.344;14.886;2022-07-09T08:36:27;7.62;;;2.00;;
40691;SDS011;26377;53.344;14.886;2022-07-09T08:38:56;5.17;;;1.30;;
40691;SDS011;26377;53.344;14.886;2022-07-09T08:41:25;4.00;;;1.50;;
40691;SDS011;26377;53.344;14.886;2022-07-09T08:43:54;4.92;;;1.50;;
40691;SDS011;26377;53.344;14.886;2022-07-09T08:46:23;3.27;;;1.27;;
40691;SDS011;26377;53.344;14.886;2022-07-09T08:48:52;4.47;;;1.50;;
40691;SDS011;26377;53.344;14.886;2022-07-09T08:51:23;7.72;;;1.50;;
40691;SDS011;26377;53.344;14.886;2022-07-09T08:53:54;3.47;;;1.40;;
40691;SDS011;26377;53.344;14.886;2022-07-09T08:56:23;4.75;;;1.35;;
40691;SDS011;26377;53.344;14.886;2022-07-09T08:58:52;2.85;;;1.30;;
40691;SDS011;26377;53.344;14.886;2022-07-09T09:01:22;6.12;;;1.57;;
40691;SDS011;26377;53.344;14.886;2022-07-09T09:03:51;2.52;;;1.20;;
40691;SDS011;26377;53.344;14.886;2022-07-09T09:06:22;6.65;;;1.87;;
40691;SDS011;26377;53.344;14.886;2022-07-09T09:08:52;6.42;;;1.80;;
40691;SDS011;26377;53.344;14.886;2022-07-09T09:11:23;2.67;;;1.30;;
40691;SDS011;26377;53.344;14.886;2022-07-09T09:13:54;5.65;;;1.87;;
40691;SDS011;26377;53.344;14.886;2022-07-09T09:16:28;3.70;;;1.85;;
40691;SDS011;26377;53.344;14.886;2022-07-09T09:18:57;6.90;;;1.98;;
40691;SDS011;26377;53.344;14.886;2022-07-09T09:21:27;6.85;;;1.95;;
40691;SDS011;26377;53.344;14.886;2022-07-09T09:23:55;6.45;;;1.80;;
40691;SDS011;26377;53.344;14.886;2022-07-09T09:26:26;5.75;;;1.90;;
40691;SDS011;26377;53.344;14.886;2022-07-09T09:28:58;4.72;;;2.00;;
40691;SDS011;26377;53.344;14.886;2022-07-09T09:31:30;8.58;;;1.47;;
40691;SDS011;26377;53.344;14.886;2022-07-09T09:34:12;2.55;;;1.50;;
40691;SDS011;26377;53.344;14.886;2022-07-09T09:36:43;5.60;;;1.57;;
40691;SDS011;26377;53.344;14.886;2022-07-09T09:39:23;9.20;;;1.95;;
40691;SDS011;26377;53.344;14.886;2022-07-09T09:41:56;3.65;;;1.65;;
40691;SDS011;26377;53.344;14.886;2022-07-09T09:44:28;6.22;;;1.70;;
40691;SDS011;26377;53.344;14.886;2022-07-09T09:47:01;1.80;;;1.25;;
40691;SDS011;26377;53.344;14.886;2022-07-09T09:49:29;2.80;;;1.37;;
40691;SDS011;26377;53.344;14.886;2022-07-09T09:52:03;4.35;;;1.77;;
40691;SDS011;26377;53.344;14.886;2022-07-09T09:54:36;6.00;;;1.87;;
40691;SDS011;26377;53.344;14.886;2022-07-09T09:57:11;8.38;;;1.87;;
40691;SDS011;26377;53.344;14.886;2022-07-09T09:59:40;7.47;;;1.60;;
40691;SDS011;26377;53.344;14.886;2022-07-09T10:02:09;3.67;;;1.47;;
40691;SDS011;26377;53.344;14.886;2022-07-09T10:04:40;5.97;;;1.55;;
40691;SDS011;26377;53.344;14.886;2022-07-09T10:07:11;3.27;;;1.45;;
40691;SDS011;26377;53.344;14.886;2022-07-09T10:09:52;4.25;;;1.50;;
40691;SDS011;26377;53.344;14.886;2022-07-09T10:12:25;4.87;;;1.40;;
40691;SDS011;26377;53.344;14.886;2022-07-09T10:14:56;2.35;;;1.27;;
40691;SDS011;26377;53.344;14.886;2022-07-09T10:17:25;2.58;;;1.20;;
40691;SDS011;26377;53.344;14.886;2022-07-09T10:20:01;3.25;;;1.62;;
40691;SDS011;26377;53.344;14.886;2022-07-09T10:25:23;5.33;;;1.45;;
40691;SDS011;26377;53.344;14.886;2022-07-09T10:27:56;5.05;;;1.60;;
40691;SDS011;26377;53.344;14.886;2022-07-09T10:30:29;2.92;;;1.20;;
40691;SDS011;26377;53.344;14.886;2022-07-09T10:33:06;4.03;;;1.40;;
40691;SDS011;26377;53.344;14.886;2022-07-09T10:38:18;3.33;;;1.40;;
40691;SDS011;26377;53.344;14.886;2022-07-09T10:40:55;3.10;;;1.47;;
40691;SDS011;26377;53.344;14.886;2022-07-09T10:43:58;2.40;;;1.20;;
40691;SDS011;26377;53.344;14.886;2022-07-09T10:46:11;2.55;;;1.30;;
40691;SDS011;26377;53.344;14.886;2022-07-09T10:48:43;3.52;;;1.40;;
40691;SDS011;26377;53.344;14.886;2022-07-09T10:51:19;2.47;;;1.32;;
40691;SDS011;26377;53.344;14.886;2022-07-09T10:53:49;3.47;;;1.65;;
40691;SDS011;26377;53.344;14.886;2022-07-09T10:56:19;2.08;;;1.10;;
40691;SDS011;26377;53.344;14.886;2022-07-09T10:58:49;2.37;;;1.15;;
40691;SDS011;26377;53.344;14.886;2022-07-09T11:01:23;2.83;;;1.57;;
40691;SDS011;26377;53.344;14.886;2022-07-09T11:03:57;4.35;;;1.40;;
40691;SDS011;26377;53.344;14.886;2022-07-09T11:06:27;3.70;;;1.15;;
40691;SDS011;26377;53.344;14.886;2022-07-09T11:08:57;3.55;;;1.50;;
40691;SDS011;26377;53.344;14.886;2022-07-09T11:11:24;2.58;;;1.25;;
40691;SDS011;26377;53.344;14.886;2022-07-09T11:13:52;2.87;;;1.22;;
40691;SDS011;26377;53.344;14.886;2022-07-09T11:16:22;2.70;;;1.20;;
40691;SDS011;26377;53.344;14.886;2022-07-09T11:21:24;4.20;;;1.87;;
40691;SDS011;26377;53.344;14.886;2022-07-09T11:23:53;6.03;;;1.57;;
40691;SDS011;26377;53.344;14.886;2022-07-09T11:26:22;2.40;;;1.25;;
40691;SDS011;26377;53.344;14.886;2022-07-09T11:28:50;3.30;;;1.47;;
40691;SDS011;26377;53.344;14.886;2022-07-09T11:31:22;3.87;;;1.50;;
40691;SDS011;26377;53.344;14.886;2022-07-09T11:33:49;2.27;;;1.15;;
40691;SDS011;26377;53.344;14.886;2022-07-09T11:36:40;4.95;;;1.50;;
40691;SDS011;26377;53.344;14.886;2022-07-09T11:39:07;4.25;;;1.30;;
40691;SDS011;26377;53.344;14.886;2022-07-09T11:41:44;4.45;;;1.65;;
40691;SDS011;26377;53.344;14.886;2022-07-09T11:44:19;2.95;;;1.40;;
40691;SDS011;26377;53.344;14.886;2022-07-09T11:47:06;2.65;;;1.47;;
40691;SDS011;26377;53.344;14.886;2022-07-09T11:49:39;4.65;;;1.50;;
40691;SDS011;26377;53.344;14.886;2022-07-09T11:52:23;2.40;;;1.35;;
40691;SDS011;26377;53.344;14.886;2022-07-09T11:57:31;3.80;;;1.47;;
40691;SDS011;26377;53.344;14.886;2022-07-09T12:00:02;4.95;;;1.50;;
40691;SDS011;26377;53.344;14.886;2022-07-09T12:02:40;2.62;;;1.40;;
40691;SDS011;26377;53.344;14.886;2022-07-09T12:05:09;2.72;;;1.20;;
40691;SDS011;26377;53.344;14.886;2022-07-09T12:07:36;4.53;;;1.47;;
40691;SDS011;26377;53.344;14.886;2022-07-09T12:10:06;4.78;;;1.35;;
40691;SDS011;26377;53.344;14.886;2022-07-09T12:12:39;4.10;;;1.47;;
40691;SDS011;26377;53.344;14.886;2022-07-09T12:15:07;3.25;;;1.92;;
40691;SDS011;26377;53.344;14.886;2022-07-09T12:17:36;2.43;;;1.13;;
40691;SDS011;26377;53.344;14.886;2022-07-09T12:20:04;2.22;;;1.15;;
40691;SDS011;26377;53.344;14.886;2022-07-09T12:22:35;2.30;;;1.30;;
40691;SDS011;26377;53.344;14.886;2022-07-09T12:25:02;2.42;;;1.47;;
40691;SDS011;26377;53.344;14.886;2022-07-09T12:27:32;1.93;;;1.10;;
40691;SDS011;26377;53.344;14.886;2022-07-09T12:29:59;2.72;;;1.17;;
40691;SDS011;26377;53.344;14.886;2022-07-09T12:32:29;3.85;;;1.62;;
40691;SDS011;26377;53.344;14.886;2022-07-09T12:34:58;1.95;;;1.30;;
40691;SDS011;26377;53.344;14.886;2022-07-09T12:37:27;2.65;;;1.40;;
40691;SDS011;26377;53.344;14.886;2022-07-09T12:39:54;4.42;;;1.40;;
40691;SDS011;26377;53.344;14.886;2022-07-09T12:42:21;3.80;;;1.20;;
40691;SDS011;26377;53.344;14.886;2022-07-09T12:44:49;2.75;;;1.07;;
40691;SDS011;26377;53.344;14.886;2022-07-09T12:47:16;4.10;;;1.47;;
40691;SDS011;26377;53.344;14.886;2022-07-09T12:49:45;3.20;;;1.10;;
40691;SDS011;26377;53.344;14.886;2022-07-09T12:52:14;5.25;;;1.72;;
40691;SDS011;26377;53.344;14.886;2022-07-09T12:54:42;7.80;;;1.57;;
40691;SDS011;26377;53.344;14.886;2022-07-09T12:57:12;4.97;;;1.20;;
40691;SDS011;26377;53.344;14.886;2022-07-09T12:59:44;2.45;;;0.82;;
40691;SDS011;26377;53.344;14.886;2022-07-09T13:02:11;3.35;;;0.80;;
40691;SDS011;26377;53.344;14.886;2022-07-09T13:04:38;5.80;;;1.42;;
40691;SDS011;26377;53.344;14.886;2022-07-09T13:07:06;3.98;;;1.45;;
40691;SDS011;26377;53.344;14.886;2022-07-09T13:09:33;3.15;;;1.15;;
40691;SDS011;26377;53.344;14.886;2022-07-09T13:12:01;2.12;;;1.10;;
40691;SDS011;26377;53.344;14.886;2022-07-09T13:14:30;2.12;;;1.05;;
40691;SDS011;26377;53.344;14.886;2022-07-09T13:17:00;5.37;;;1.07;;
40691;SDS011;26377;53.344;14.886;2022-07-09T13:19:27;2.75;;;1.32;;
40691;SDS011;26377;53.344;14.886;2022-07-09T13:21:56;2.30;;;1.15;;
40691;SDS011;26377;53.344;14.886;2022-07-09T13:24:23;3.58;;;1.37;;
40691;SDS011;26377;53.344;14.886;2022-07-09T13:26:51;4.75;;;1.27;;
40691;SDS011;26377;53.344;14.886;2022-07-09T13:31:49;3.02;;;0.80;;
40691;SDS011;26377;53.344;14.886;2022-07-09T13:34:17;6.03;;;1.10;;
40691;SDS011;26377;53.344;14.886;2022-07-09T13:36:47;3.45;;;1.40;;
40691;SDS011;26377;53.344;14.886;2022-07-09T13:39:14;1.72;;;0.85;;
40691;SDS011;26377;53.344;14.886;2022-07-09T13:41:42;2.67;;;1.20;;
40691;SDS011;26377;53.344;14.886;2022-07-09T13:44:10;2.77;;;1.32;;
40691;SDS011;26377;53.344;14.886;2022-07-09T13:46:38;2.15;;;1.20;;
40691;SDS011;26377;53.344;14.886;2022-07-09T13:49:06;3.02;;;1.32;;
40691;SDS011;26377;53.344;14.886;2022-07-09T13:51:33;3.70;;;1.30;;
40691;SDS011;26377;53.344;14.886;2022-07-09T13:54:02;3.05;;;1.30;;
40691;SDS011;26377;53.344;14.886;2022-07-09T13:59:00;3.55;;;1.45;;
40691;SDS011;26377;53.344;14.886;2022-07-09T14:01:28;6.47;;;1.57;;
40691;SDS011;26377;53.344;14.886;2022-07-09T14:03:59;3.25;;;1.50;;
40691;SDS011;26377;53.344;14.886;2022-07-09T14:06:29;2.98;;;1.40;;
40691;SDS011;26377;53.344;14.886;2022-07-09T14:11:27;3.25;;;1.32;;
40691;SDS011;26377;53.344;14.886;2022-07-09T14:13:55;5.47;;;1.65;;
40691;SDS011;26377;53.344;14.886;2022-07-09T14:16:24;3.55;;;1.47;;
40691;SDS011;26377;53.344;14.886;2022-07-09T14:18:52;2.98;;;1.55;;
40691;SDS011;26377;53.344;14.886;2022-07-09T14:21:21;5.70;;;1.75;;
40691;SDS011;26377;53.344;14.886;2022-07-09T14:23:49;4.53;;;1.57;;
40691;SDS011;26377;53.344;14.886;2022-07-09T14:26:17;3.75;;;1.62;;
40691;SDS011;26377;53.344;14.886;2022-07-09T14:28:45;6.58;;;1.82;;
40691;SDS011;26377;53.344;14.886;2022-07-09T14:31:14;5.25;;;1.85;;
40691;SDS011;26377;53.344;14.886;2022-07-09T14:33:43;4.17;;;1.37;;
40691;SDS011;26377;53.344;14.886;2022-07-09T14:36:12;6.85;;;1.62;;
40691;SDS011;26377;53.344;14.886;2022-07-09T14:38:42;3.58;;;1.62;;
40691;SDS011;26377;53.344;14.886;2022-07-09T14:41:14;2.50;;;1.37;;
40691;SDS011;26377;53.344;14.886;2022-07-09T14:43:41;3.12;;;1.52;;
40691;SDS011;26377;53.344;14.886;2022-07-09T14:48:39;3.40;;;1.45;;
40691;SDS011;26377;53.344;14.886;2022-07-09T14:53:38;6.47;;;2.30;;
40691;SDS011;26377;53.344;14.886;2022-07-09T14:56:05;5.37;;;1.95;;
40691;SDS011;26377;53.344;14.886;2022-07-09T14:58:33;3.85;;;1.47;;
40691;SDS011;26377;53.344;14.886;2022-07-09T15:01:00;4.90;;;1.50;;
40691;SDS011;26377;53.344;14.886;2022-07-09T15:03:29;4.03;;;1.80;;
40691;SDS011;26377;53.344;14.886;2022-07-09T15:05:56;4.80;;;1.90;;
40691;SDS011;26377;53.344;14.886;2022-07-09T15:08:26;5.70;;;2.02;;
40691;SDS011;26377;53.344;14.886;2022-07-09T15:10:53;6.17;;;2.00;;
40691;SDS011;26377;53.344;14.886;2022-07-09T15:13:23;3.77;;;1.50;;
40691;SDS011;26377;53.344;14.886;2022-07-09T15:15:52;4.40;;;1.47;;
40691;SDS011;26377;53.344;14.886;2022-07-09T15:18:21;5.20;;;1.20;;
40691;SDS011;26377;53.344;14.886;2022-07-09T15:20:52;2.27;;;1.00;;